createdAt,value
2022-08-07T00:02:37.415Z,25.11
2022-08-07T00:04:59.377Z,25.09
2022-08-07T00:07:27.377Z,25.09
2022-08-07T00:10:19.291Z,25.09
2022-08-07T00:12:56.265Z,25.09
2022-08-07T00:15:38.619Z,25.09
2022-08-07T00:18:19.173Z,25.07
2022-08-07T00:20:49.486Z,25.06
2022-08-07T00:23:16.986Z,25.05
2022-08-07T00:25:45.753Z,25.05
2022-08-07T00:28:22.004Z,25.08
2022-08-07T00:30:49.443Z,25.07
2022-08-07T00:33:16.494Z,25.07
2022-08-07T00:35:49.573Z,25.07
2022-08-07T00:38:16.654Z,25.04
2022-08-07T00:41:02.001Z,25.04
2022-08-07T00:44:00.198Z,25.01
2022-08-07T00:46:15.910Z,25.01
2022-08-07T00:48:43.083Z,25.01
2022-08-07T00:51:10.562Z,24.98
2022-08-07T00:53:39.271Z,24.90
2022-08-07T00:56:30.258Z,24.87
2022-08-07T00:59:02.294Z,24.83
2022-08-07T01:01:29.755Z,24.80
2022-08-07T01:04:11.665Z,24.77
2022-08-07T01:06:51.775Z,24.76
2022-08-07T01:10:04.608Z,24.74
2022-08-07T01:12:29.963Z,24.73
2022-08-07T01:15:01.157Z,24.71
2022-08-07T01:17:31.272Z,24.69
2022-08-07T01:20:16.573Z,24.69
2022-08-07T01:22:58.333Z,24.60
2022-08-07T01:25:54.727Z,24.51
2022-08-07T01:28:19.648Z,24.48
2022-08-07T01:30:47.524Z,24.47
2022-08-07T01:33:18.309Z,24.45
2022-08-07T01:35:54.401Z,24.42
2022-08-07T01:38:32.940Z,24.33
2022-08-07T01:41:02.144Z,24.28
2022-08-07T01:43:34.800Z,24.23
2022-08-07T01:46:05.703Z,24.24
2022-08-07T01:48:36.188Z,24.24
2022-08-07T01:52:02.624Z,24.25
2022-08-07T01:54:11.582Z,24.19
2022-08-07T01:56:57.466Z,24.12
2022-08-07T01:59:31.059Z,24.14
2022-08-07T02:02:07.421Z,24.11
2022-08-07T02:04:55.656Z,24.13
2022-08-07T02:07:45.162Z,24.17
2022-08-07T02:10:18.123Z,24.15
2022-08-07T02:12:50.257Z,24.08
2022-08-07T02:15:22.756Z,24.06
2022-08-07T02:17:52.003Z,24.04
2022-08-07T02:20:23.842Z,24.03
2022-08-07T02:22:59.921Z,24.05
2022-08-07T02:26:10.290Z,24.06
2022-08-07T02:28:24.379Z,24.02
2022-08-07T02:30:53.252Z,23.97
2022-08-07T02:33:20.915Z,23.96
2022-08-07T02:36:29.409Z,23.99
2022-08-07T02:38:38.747Z,23.92
2022-08-07T02:41:08.007Z,23.87
2022-08-07T02:43:39.765Z,23.84
2022-08-07T02:46:09.308Z,23.79
2022-08-07T02:48:36.048Z,23.66
2022-08-07T02:51:07.628Z,23.79
2022-08-07T02:53:56.266Z,23.79
2022-08-07T02:56:28.095Z,23.84
2022-08-07T02:58:55.849Z,23.81
2022-08-07T03:01:36.706Z,23.79
2022-08-07T03:04:12.576Z,23.82
2022-08-07T03:06:44.852Z,23.91
2022-08-07T03:09:14.032Z,23.88
2022-08-07T03:11:52.529Z,23.93
2022-08-07T03:14:25.917Z,23.90
2022-08-07T03:16:57.725Z,23.89
2022-08-07T03:19:28.939Z,23.89
2022-08-07T03:22:06.048Z,23.90
2022-08-07T03:24:36.730Z,23.88
2022-08-07T03:27:09.007Z,24.05
2022-08-07T03:29:46.281Z,24.20
2022-08-07T03:32:20.835Z,24.28
2022-08-07T03:35:01.026Z,24.37
2022-08-07T03:37:53.211Z,24.29
2022-08-07T03:40:23.809Z,24.41
2022-08-07T03:42:58.243Z,24.41
2022-08-07T03:45:30.794Z,24.52
2022-08-07T03:47:59.191Z,24.54
2022-08-07T03:50:28.393Z,24.57
2022-08-07T03:52:58.769Z,24.59
2022-08-07T03:55:58.488Z,24.57
2022-08-07T03:59:04.744Z,24.59
2022-08-07T04:01:01.977Z,24.63
2022-08-07T04:03:29.311Z,24.60
2022-08-07T04:06:36.292Z,24.62
2022-08-07T04:09:04.380Z,24.67
2022-08-07T04:12:23.498Z,24.69
2022-08-07T04:14:37.690Z,24.80
2022-08-07T04:17:19.890Z,24.89
2022-08-07T04:19:52.745Z,25.06
2022-08-07T04:22:28.494Z,25.17
2022-08-07T04:24:58.376Z,25.24
2022-08-07T04:27:26.503Z,25.32
2022-08-07T04:30:02.285Z,25.39
2022-08-07T04:32:34.336Z,25.43
2022-08-07T04:35:11.468Z,25.52
2022-08-07T04:38:03.587Z,25.54
2022-08-07T04:40:30.028Z,25.58
2022-08-07T04:43:01.764Z,25.67
2022-08-07T04:46:00.231Z,25.76
2022-08-07T04:48:44.598Z,25.80
2022-08-07T04:51:54.716Z,25.79
2022-08-07T04:54:55.091Z,25.89
2022-08-07T04:58:13.809Z,25.99
2022-08-07T05:01:01.050Z,26.12
2022-08-07T05:04:06.704Z,26.19
2022-08-07T05:06:59.113Z,26.29
2022-08-07T05:09:46.130Z,26.31
2022-08-07T05:12:26.900Z,26.28
2022-08-07T05:15:21.745Z,26.35
2022-08-07T05:18:00.822Z,26.50
2022-08-07T05:20:37.278Z,26.65
2022-08-07T05:23:30.132Z,26.68
2022-08-07T05:26:11.671Z,26.59
2022-08-07T05:28:48.752Z,26.71
2022-08-07T05:31:19.891Z,26.88
2022-08-07T05:34:01.356Z,27.16
2022-08-07T05:36:35.661Z,27.41
2022-08-07T05:39:09.002Z,27.55
2022-08-07T05:42:02.262Z,27.76
2022-08-07T05:44:35.579Z,28.03
2022-08-07T05:47:18.771Z,28.39
2022-08-07T05:49:50.737Z,29.05
2022-08-07T05:52:20.355Z,29.84
2022-08-07T05:54:55.843Z,30.12
2022-08-07T05:57:30.287Z,30.17
2022-08-07T06:00:02.255Z,30.04
2022-08-07T06:02:35.698Z,29.95
2022-08-07T06:05:09.297Z,29.92
2022-08-07T06:08:13.318Z,29.88
2022-08-07T06:10:27.416Z,29.64
2022-08-07T06:12:54.649Z,29.33
2022-08-07T06:15:42.435Z,29.17
2022-08-07T06:18:13.994Z,29.03
2022-08-07T06:20:51.102Z,29.02
2022-08-07T06:24:36.776Z,29.38
2022-08-07T06:26:16.887Z,30.27
2022-08-07T06:28:54.774Z,29.88
2022-08-07T06:31:38.319Z,29.36
2022-08-07T06:34:05.881Z,28.98
2022-08-07T06:36:35.187Z,29.29
2022-08-07T06:40:17.163Z,29.84
2022-08-07T06:42:04.761Z,29.64
2022-08-07T06:44:34.080Z,29.21
2022-08-07T06:47:10.332Z,28.88
2022-08-07T06:49:51.503Z,28.63
2022-08-07T06:52:31.638Z,28.47
2022-08-07T06:55:33.997Z,28.36
2022-08-07T06:57:56.951Z,28.22
2022-08-07T07:00:25.376Z,28.07
2022-08-07T07:03:00.881Z,28.05
2022-08-07T07:06:02.763Z,28.23
2022-08-07T07:08:31.137Z,28.43
2022-08-07T07:11:01.722Z,28.55
2022-08-07T07:13:57.986Z,30.39
2022-08-07T07:16:34.025Z,31.45
2022-08-07T07:19:54.638Z,31.51
2022-08-07T07:22:04.743Z,31.38
2022-08-07T07:24:43.186Z,32.21
2022-08-07T07:27:26.840Z,35.70
2022-08-07T07:30:08.904Z,35.86
2022-08-07T07:32:43.635Z,39.46
2022-08-07T07:35:13.522Z,39.88
2022-08-07T07:37:47.228Z,40.38
2022-08-07T07:40:19.764Z,38.13
2022-08-07T07:42:51.359Z,39.12
2022-08-07T07:46:40.342Z,42.72
2022-08-07T07:48:35.313Z,44.81
2022-08-07T07:51:07.810Z,40.83
2022-08-07T07:53:50.380Z,41.71
2022-08-07T07:56:30.335Z,43.19
2022-08-07T07:59:00.360Z,41.66
2022-08-07T08:02:01.610Z,39.40
2022-08-07T08:04:17.531Z,37.86
2022-08-07T08:06:51.990Z,39.18
2022-08-07T08:09:23.053Z,42.89
2022-08-07T08:12:02.986Z,45.80
2022-08-07T08:14:36.168Z,47.82
2022-08-07T08:18:36.585Z,49.61
2022-08-07T08:20:17.628Z,50.20
2022-08-07T08:23:00.446Z,50.82
2022-08-07T08:25:49.219Z,52.21
2022-08-07T08:28:24.169Z,53.74
2022-08-07T08:31:05.412Z,55.11
2022-08-07T08:33:34.453Z,55.97
2022-08-07T08:36:01.903Z,56.60
2022-08-07T08:38:38.144Z,56.02
2022-08-07T08:41:16.877Z,53.91
2022-08-07T08:44:04.397Z,53.97
2022-08-07T08:46:53.630Z,53.07
2022-08-07T08:49:32.949Z,53.55
2022-08-07T08:52:14.081Z,53.56
2022-08-07T08:54:55.580Z,51.63
2022-08-07T08:57:42.725Z,51.90
2022-08-07T09:00:12.347Z,50.24
2022-08-07T09:02:39.254Z,49.72
2022-08-07T09:05:10.258Z,50.01
2022-08-07T09:07:46.555Z,50.13
2022-08-07T09:10:29.339Z,49.21
2022-08-07T09:12:56.767Z,47.57
2022-08-07T09:16:22.504Z,46.43
2022-08-07T09:18:41.721Z,44.28
2022-08-07T09:21:33.784Z,43.11
2022-08-07T09:24:31.901Z,42.10
2022-08-07T09:26:50.923Z,41.95
2022-08-07T09:30:02.017Z,43.21
2022-08-07T09:32:32.387Z,44.52
2022-08-07T09:35:04.642Z,45.20
2022-08-07T09:38:04.476Z,47.14
2022-08-07T09:40:46.241Z,49.13
2022-08-07T09:43:40.326Z,49.48
2022-08-07T09:47:49.845Z,46.09
2022-08-07T09:49:59.839Z,43.04
2022-08-07T09:52:33.361Z,41.08
2022-08-07T09:56:02.737Z,39.76
2022-08-07T09:58:42.259Z,38.51
2022-08-07T10:01:14.929Z,37.87
2022-08-07T10:04:14.963Z,37.12
2022-08-07T10:06:56.830Z,36.21
2022-08-07T10:09:42.530Z,35.81
2022-08-07T10:12:18.159Z,35.46
2022-08-07T10:14:57.608Z,35.24
2022-08-07T10:18:01.313Z,34.76
2022-08-07T10:20:35.772Z,34.48
2022-08-07T10:24:05.311Z,34.21
2022-08-07T10:26:29.331Z,33.96
2022-08-07T10:28:58.011Z,34.01
2022-08-07T10:31:57.289Z,33.85
2022-08-07T10:34:37.489Z,33.70
2022-08-07T10:37:12.451Z,33.82
2022-08-07T10:40:05.320Z,33.75
2022-08-07T10:42:51.700Z,33.40
2022-08-07T10:45:57.178Z,33.04
2022-08-07T10:48:18.680Z,32.91
2022-08-07T10:50:50.351Z,32.81
2022-08-07T10:53:23.633Z,32.99
2022-08-07T10:56:03.313Z,33.10
2022-08-07T10:58:46.040Z,33.15
2022-08-07T11:01:35.823Z,32.96
2022-08-07T11:04:32.313Z,32.88
2022-08-07T11:07:15.034Z,32.82
2022-08-07T11:10:08.004Z,32.80
2022-08-07T11:12:45.591Z,33.02
2022-08-07T11:15:20.951Z,33.07
2022-08-07T11:18:04.668Z,32.88
2022-08-07T11:20:43.281Z,32.81
2022-08-07T11:23:30.503Z,32.95
2022-08-07T11:26:22.361Z,33.16
2022-08-07T11:28:55.280Z,33.08
2022-08-07T11:31:33.288Z,32.78
2022-08-07T11:34:06.539Z,32.60
2022-08-07T11:36:37.168Z,32.10
2022-08-07T11:39:07.295Z,31.72
2022-08-07T11:42:01.904Z,31.26
2022-08-07T11:44:40.308Z,30.93
2022-08-07T11:47:19.735Z,30.73
2022-08-07T11:50:31.408Z,30.46
2022-08-07T11:53:06.178Z,30.01
2022-08-07T11:56:13.936Z,29.81
2022-08-07T11:58:33.364Z,29.58
2022-08-07T12:01:20.285Z,29.38
2022-08-07T12:04:06.942Z,29.15
2022-08-07T12:06:51.584Z,28.85
2022-08-07T12:09:42.641Z,28.54
2022-08-07T12:12:17.743Z,28.23
2022-08-07T12:14:56.198Z,28.08
2022-08-07T12:17:33.936Z,28.10
2022-08-07T12:20:20.063Z,28.08
2022-08-07T12:23:21.484Z,28.04
2022-08-07T12:26:34.449Z,27.97
2022-08-07T12:29:13.123Z,27.94
2022-08-07T12:32:04.218Z,27.83
2022-08-07T12:34:38.318Z,27.67
2022-08-07T12:37:08.340Z,27.49
2022-08-07T12:39:50.487Z,27.42
2022-08-07T12:42:22.793Z,27.13
2022-08-07T12:44:55.402Z,26.74
2022-08-07T12:47:30.545Z,26.44
2022-08-07T12:50:04.687Z,26.29
2022-08-07T12:52:35.014Z,26.19
2022-08-07T12:55:21.054Z,26.25
2022-08-07T12:58:00.617Z,26.37
2022-08-07T13:01:01.387Z,26.36
2022-08-07T13:04:02.623Z,26.06
2022-08-07T13:07:00.894Z,26.02
2022-08-07T13:10:36.722Z,25.80
2022-08-07T13:12:37.264Z,25.77
2022-08-07T13:15:23.587Z,25.82
2022-08-07T13:18:08.088Z,25.80
2022-08-07T13:20:44.602Z,25.67
2022-08-07T13:24:01.729Z,25.66
2022-08-07T13:26:27.395Z,25.58
2022-08-07T13:29:03.586Z,25.58
2022-08-07T13:31:54.925Z,25.60
2022-08-07T13:34:37.717Z,25.63
2022-08-07T13:37:30.546Z,25.80
2022-08-07T13:40:35.840Z,25.85
2022-08-07T13:42:55.366Z,25.80
2022-08-07T13:46:11.712Z,25.73
2022-08-07T13:48:27.345Z,25.67
2022-08-07T13:51:01.705Z,25.68
2022-08-07T13:53:59.766Z,25.62
2022-08-07T13:56:35.848Z,25.49
2022-08-07T13:59:15.845Z,25.42
2022-08-07T14:02:03.729Z,25.48
2022-08-07T14:04:36.370Z,25.47
2022-08-07T14:07:09.542Z,25.55
2022-08-07T14:10:12.499Z,25.61
2022-08-07T14:12:41.651Z,25.63
2022-08-07T14:15:18.550Z,25.62
2022-08-07T14:18:15.858Z,25.62
2022-08-07T14:20:41.712Z,25.66
2022-08-07T14:23:13.858Z,25.78
2022-08-07T14:25:48.212Z,25.77
2022-08-07T14:28:17.008Z,25.75
2022-08-07T14:30:52.321Z,25.79
2022-08-07T14:33:22.290Z,25.81
2022-08-07T14:35:55.587Z,25.88
2022-08-07T14:38:30.427Z,25.82
2022-08-07T14:41:12.424Z,25.82
2022-08-07T14:43:58.526Z,25.95
2022-08-07T14:46:33.157Z,25.94
2022-08-07T14:49:55.724Z,25.76
2022-08-07T14:57:36.334Z,25.48
2022-08-07T15:00:20.622Z,25.62
2022-08-07T15:02:56.687Z,25.70
2022-08-07T15:05:24.402Z,25.63
2022-08-07T15:07:52.726Z,25.57
2022-08-07T15:10:26.049Z,25.57
2022-08-07T15:13:11.383Z,25.61
2022-08-07T15:15:42.193Z,25.58
2022-08-07T15:21:08.210Z,25.39
2022-08-07T15:25:15.571Z,25.43
2022-08-07T15:26:32.115Z,25.51
2022-08-07T15:30:10.104Z,25.58
2022-08-07T15:32:01.958Z,25.59
2022-08-07T15:34:35.453Z,25.63
2022-08-07T15:37:07.076Z,25.67
2022-08-07T15:39:56.899Z,25.70
2022-08-07T15:45:24.141Z,25.79
2022-08-07T15:48:12.658Z,25.76
2022-08-07T15:51:02.090Z,25.75
2022-08-07T15:53:52.106Z,25.69
2022-08-07T15:56:24.834Z,25.63
2022-08-07T15:58:59.289Z,25.54
2022-08-07T16:01:38.752Z,25.47
2022-08-07T16:04:15.189Z,25.44
2022-08-07T16:06:51.150Z,25.41
2022-08-07T16:09:22.787Z,25.37
2022-08-07T16:12:13.830Z,25.28
2022-08-07T16:15:07.682Z,25.26
2022-08-07T16:18:01.865Z,25.25
2022-08-07T16:21:42.969Z,25.17
2022-08-07T16:23:54.246Z,25.08
2022-08-07T16:26:30.874Z,25.02
2022-08-07T16:30:09.076Z,24.95
2022-08-07T16:32:33.008Z,24.87
2022-08-07T16:34:57.192Z,24.80
2022-08-07T16:38:07.466Z,24.71
2022-08-07T16:40:57.006Z,24.68
2022-08-07T16:44:06.157Z,24.62
2022-08-07T16:50:29.197Z,24.58
2022-08-07T16:52:50.794Z,24.55
2022-08-07T16:55:20.644Z,24.52
2022-08-07T16:58:01.492Z,24.53
2022-08-07T17:00:39.541Z,24.51
2022-08-07T17:03:09.763Z,24.45
2022-08-07T17:06:19.790Z,24.43
2022-08-07T17:09:09.932Z,24.41
2022-08-07T17:12:04.705Z,24.45
2022-08-07T17:14:44.045Z,24.52
2022-08-07T17:17:28.213Z,24.49
2022-08-07T17:20:31.529Z,24.43
2022-08-07T17:23:08.567Z,24.37
2022-08-07T17:25:52.202Z,24.33
2022-08-07T17:28:32.743Z,24.30
2022-08-07T17:31:16.958Z,24.30
2022-08-07T17:34:15.602Z,24.28
2022-08-07T17:36:57.896Z,24.27
2022-08-07T17:40:03.111Z,24.29
2022-08-07T17:42:59.096Z,24.29
2022-08-07T17:45:52.709Z,24.26
2022-08-07T17:48:30.401Z,24.23
2022-08-07T17:52:00.962Z,24.21
2022-08-07T17:54:39.881Z,24.22
2022-08-07T17:57:58.939Z,24.18
2022-08-07T18:00:33.401Z,24.14
2022-08-07T18:03:18.531Z,24.11
2022-08-07T18:06:01.456Z,24.11
2022-08-07T18:08:36.358Z,24.06
2022-08-07T18:12:07.563Z,23.98
2022-08-07T18:14:28.557Z,23.95
2022-08-07T18:16:59.193Z,23.90
2022-08-07T18:21:08.442Z,23.85
2022-08-07T18:22:26.342Z,23.80
2022-08-07T18:25:19.491Z,23.75
2022-08-07T18:27:48.377Z,23.73
2022-08-07T18:30:32.563Z,23.73
2022-08-07T18:33:10.686Z,23.73
2022-08-07T18:35:53.767Z,23.76
2022-08-07T18:38:55.109Z,23.77
2022-08-07T18:41:45.653Z,23.79
2022-08-07T18:44:25.549Z,23.74
2022-08-07T18:47:20.988Z,23.72
2022-08-07T18:50:31.423Z,23.66
2022-08-07T18:53:06.148Z,23.64
2022-08-07T18:55:55.523Z,23.59
2022-08-07T18:58:33.418Z,23.52
2022-08-07T19:01:03.787Z,23.48
2022-08-07T19:03:39.149Z,23.45
2022-08-07T19:06:16.378Z,23.45
2022-08-07T19:08:47.284Z,23.46
2022-08-07T19:11:35.945Z,23.51
2022-08-07T19:14:07.916Z,23.42
2022-08-07T19:17:04.892Z,23.35
2022-08-07T19:19:53.530Z,23.37
2022-08-07T19:22:30.710Z,23.40
2022-08-07T19:24:58.966Z,23.38
2022-08-07T19:28:58.448Z,23.36
2022-08-07T19:31:03.119Z,23.31
2022-08-07T19:33:13.231Z,23.25
2022-08-07T19:35:43.703Z,23.25
2022-08-07T19:38:15.884Z,23.26
2022-08-07T19:40:50.556Z,23.22
2022-08-07T19:43:43.749Z,23.22
2022-08-07T19:46:19.299Z,23.18
2022-08-07T19:48:54.199Z,23.18
2022-08-07T19:51:52.268Z,23.19
2022-08-07T19:54:33.902Z,23.21
2022-08-07T19:58:01.869Z,23.23
2022-08-07T19:59:48.507Z,23.24
2022-08-07T20:02:29.235Z,23.27
2022-08-07T20:04:56.767Z,23.30
2022-08-07T20:07:45.893Z,23.29
2022-08-07T20:10:36.939Z,23.34
2022-08-07T20:13:06.146Z,23.33
2022-08-07T20:15:37.246Z,23.22
2022-08-07T20:18:06.315Z,23.22
2022-08-07T20:20:42.008Z,23.16
2022-08-07T20:23:10.912Z,23.13
2022-08-07T20:26:02.706Z,23.07
2022-08-07T20:28:31.036Z,23.08
2022-08-07T20:30:58.822Z,23.08
2022-08-07T20:33:36.613Z,23.11
2022-08-07T20:36:07.257Z,23.07
2022-08-07T20:38:34.966Z,23.07
2022-08-07T20:41:03.959Z,23.03
2022-08-07T20:43:33.697Z,22.95
2022-08-07T20:46:28.565Z,22.87
2022-08-07T20:49:02.427Z,22.79
2022-08-07T20:51:40.353Z,22.73
2022-08-07T20:54:30.306Z,22.69
2022-08-07T20:57:03.812Z,22.69
2022-08-07T21:00:08.016Z,22.62
2022-08-07T21:02:53.288Z,22.59
2022-08-07T21:05:25.789Z,22.58
2022-08-07T21:08:16.632Z,22.59
2022-08-07T21:10:49.509Z,22.57
2022-08-07T21:13:19.061Z,22.54
2022-08-07T21:16:00.473Z,22.49
2022-08-07T21:18:33.827Z,22.43
2022-08-07T21:21:01.758Z,22.37
2022-08-07T21:23:42.837Z,22.35
2022-08-07T21:26:35.614Z,22.23
2022-08-07T21:29:07.437Z,22.12
2022-08-07T21:32:47.534Z,22.13
2022-08-07T21:35:01.505Z,22.15
2022-08-07T21:37:57.863Z,22.12
2022-08-07T21:40:39.229Z,22.13
2022-08-07T21:43:11.025Z,22.12
2022-08-07T21:46:09.720Z,22.12
2022-08-07T21:48:42.527Z,22.12
2022-08-07T21:51:33.808Z,22.10
2022-08-07T21:54:36.044Z,22.04
2022-08-07T21:57:39.803Z,22.07
2022-08-07T22:00:22.268Z,22.05
2022-08-07T22:03:08.507Z,22.08
2022-08-07T22:05:53.853Z,22.06
2022-08-07T22:08:23.376Z,22.02
2022-08-07T22:10:54.003Z,21.97
2022-08-07T22:13:24.651Z,21.99
2022-08-07T22:16:39.515Z,22.05
2022-08-07T22:19:29.531Z,22.12
2022-08-07T22:22:20.919Z,22.15
2022-08-07T22:25:08.309Z,22.16
2022-08-07T22:28:29.559Z,22.13
2022-08-07T22:30:33.991Z,22.19
2022-08-07T22:33:04.799Z,22.19
2022-08-07T22:35:44.011Z,22.17
2022-08-07T22:38:20.438Z,22.17
2022-08-07T22:40:57.132Z,22.20
2022-08-07T22:43:45.069Z,22.23
2022-08-07T22:47:02.301Z,22.24
2022-08-07T22:49:12.698Z,22.26
2022-08-07T22:51:49.253Z,22.24
2022-08-07T22:54:33.782Z,22.21
2022-08-07T22:57:16.874Z,22.19
2022-08-07T22:59:52.872Z,22.20
2022-08-07T23:02:39.839Z,22.20
2022-08-07T23:06:10.341Z,22.19
2022-08-07T23:08:42.087Z,22.12
2022-08-07T23:11:35.252Z,22.10
2022-08-07T23:14:26.686Z,22.03
2022-08-07T23:17:04.467Z,22.04
2022-08-07T23:19:59.882Z,22.08
2022-08-07T23:22:32.741Z,22.09
2022-08-07T23:25:04.604Z,22.10
2022-08-07T23:28:20.283Z,22.13
2022-08-07T23:30:43.325Z,22.16
2022-08-07T23:34:35.499Z,22.15
2022-08-07T23:36:54.723Z,22.12
2022-08-07T23:39:55.749Z,22.05
2022-08-07T23:42:58.244Z,21.96
2022-08-07T23:45:32.980Z,21.84
2022-08-07T23:48:17.296Z,21.76
2022-08-07T23:50:47.055Z,21.71
2022-08-07T23:53:17.573Z,21.59
2022-08-07T23:55:55.625Z,21.52
2022-08-07T23:58:29.767Z,21.46
